createdAt,value
2022-10-25T00:01:25.292Z,6.60
2022-10-25T00:03:54.657Z,10.20
2022-10-25T00:06:23.761Z,11.00
2022-10-25T00:08:52.104Z,11.43
2022-10-25T00:11:24.591Z,7.83
2022-10-25T00:13:54.594Z,6.90
2022-10-25T00:16:27.424Z,8.93
2022-10-25T00:18:55.794Z,7.60
2022-10-25T00:21:24.504Z,6.90
2022-10-25T00:23:53.077Z,9.67
2022-10-25T00:26:22.801Z,8.07
2022-10-25T00:28:53.851Z,10.33
2022-10-25T00:31:21.859Z,6.23
2022-10-25T00:33:49.799Z,6.63
2022-10-25T00:36:21.181Z,9.77
2022-10-25T00:38:49.658Z,7.63
2022-10-25T00:41:24.272Z,6.73
2022-10-25T00:43:54.380Z,6.20
2022-10-25T00:46:27.817Z,7.20
2022-10-25T00:49:00.165Z,8.33
2022-10-25T00:51:34.184Z,8.90
2022-10-25T00:54:02.731Z,4.93
2022-10-25T00:56:38.551Z,6.60
2022-10-25T00:59:10.868Z,6.80
2022-10-25T01:01:39.816Z,8.07
2022-10-25T01:04:14.229Z,5.37
2022-10-25T01:06:44.438Z,9.70
2022-10-25T01:09:18.158Z,5.40
2022-10-25T01:11:47.740Z,5.67
2022-10-25T01:14:17.807Z,6.13
2022-10-25T01:16:59.065Z,7.40
2022-10-25T01:19:47.253Z,5.03
2022-10-25T01:22:20.697Z,6.30
2022-10-25T01:25:14.383Z,8.80
2022-10-25T01:28:02.359Z,4.67
2022-10-25T01:31:01.360Z,6.23
2022-10-25T01:33:36.430Z,4.73
2022-10-25T01:38:52.214Z,5.20
2022-10-25T01:41:27.101Z,6.30
2022-10-25T01:44:12.707Z,4.60
2022-10-25T01:46:50.315Z,6.80
2022-10-25T01:49:25.020Z,6.10
2022-10-25T01:51:53.052Z,4.37
2022-10-25T01:54:24.865Z,6.67
2022-10-25T01:57:11.193Z,6.20
2022-10-25T02:00:08.042Z,9.10
2022-10-25T02:02:52.548Z,6.83
2022-10-25T02:05:31.761Z,4.90
2022-10-25T02:08:06.065Z,5.83
2022-10-25T02:10:39.837Z,5.37
2022-10-25T02:13:20.086Z,5.20
2022-10-25T02:15:57.319Z,3.90
2022-10-25T02:21:07.212Z,5.77
2022-10-25T02:23:37.565Z,3.20
2022-10-25T02:26:09.820Z,3.87
2022-10-25T02:28:41.344Z,6.30
2022-10-25T02:31:12.697Z,4.47
2022-10-25T02:33:44.573Z,5.43
2022-10-25T02:36:16.158Z,6.53
2022-10-25T02:38:45.398Z,10.40
2022-10-25T02:41:14.486Z,5.83
2022-10-25T02:43:42.461Z,3.63
2022-10-25T02:46:15.056Z,4.90
2022-10-25T02:48:44.889Z,4.50
2022-10-25T02:51:14.142Z,4.40
2022-10-25T02:53:42.585Z,3.57
2022-10-25T02:56:14.165Z,3.40
2022-10-25T02:58:45.179Z,7.27
2022-10-25T03:01:14.487Z,3.70
2022-10-25T03:03:45.084Z,4.93
2022-10-25T03:06:13.529Z,4.67
2022-10-25T03:08:42.665Z,7.10
2022-10-25T03:11:12.931Z,4.30
2022-10-25T03:13:40.959Z,3.23
2022-10-25T03:16:09.596Z,4.70
2022-10-25T03:18:38.014Z,3.40
2022-10-25T03:21:07.850Z,5.70
2022-10-25T03:23:36.214Z,3.90
2022-10-25T03:26:04.636Z,5.00
2022-10-25T03:28:32.749Z,2.87
2022-10-25T03:31:01.177Z,6.63
2022-10-25T03:36:02.541Z,4.23
2022-10-25T03:38:31.895Z,6.10
2022-10-25T03:40:59.884Z,3.77
2022-10-25T03:43:28.415Z,4.03
2022-10-25T03:45:56.429Z,3.27
2022-10-25T03:48:24.447Z,7.53
2022-10-25T03:50:52.513Z,3.00
2022-10-25T03:53:21.376Z,3.73
2022-10-25T03:55:50.750Z,3.90
2022-10-25T03:58:19.649Z,2.50
2022-10-25T04:00:47.714Z,2.67
2022-10-25T04:03:15.741Z,5.77
2022-10-25T04:05:43.748Z,2.30
2022-10-25T04:08:11.716Z,7.43
2022-10-25T04:10:39.675Z,6.23
2022-10-25T04:13:08.997Z,4.90
2022-10-25T04:15:38.912Z,4.30
2022-10-25T04:18:07.341Z,2.97
2022-10-25T04:20:35.480Z,4.30
2022-10-25T04:23:03.431Z,4.30
2022-10-25T04:25:31.554Z,5.27
2022-10-25T04:28:00.400Z,3.17
2022-10-25T04:30:29.854Z,2.77
2022-10-25T04:32:58.681Z,2.37
2022-10-25T04:35:26.644Z,3.80
2022-10-25T04:37:58.435Z,3.50
2022-10-25T04:40:26.734Z,3.47
2022-10-25T04:42:54.764Z,3.43
2022-10-25T04:45:22.830Z,2.40
2022-10-25T04:47:52.110Z,3.13
2022-10-25T04:50:20.141Z,3.80
2022-10-25T04:52:48.282Z,2.57
2022-10-25T04:55:16.608Z,5.17
2022-10-25T04:57:44.609Z,4.83
2022-10-25T05:00:14.000Z,4.43
2022-10-25T05:02:42.039Z,5.00
2022-10-25T05:05:11.496Z,4.20
2022-10-25T05:07:39.472Z,6.27
2022-10-25T05:10:07.897Z,4.70
2022-10-25T05:12:36.062Z,9.57
2022-10-25T05:15:04.484Z,6.40
2022-10-25T05:17:32.626Z,6.37
2022-10-25T05:20:00.897Z,6.53
2022-10-25T05:22:30.328Z,12.10
2022-10-25T05:24:58.571Z,17.10
2022-10-25T05:27:26.628Z,4.80
2022-10-25T05:29:54.925Z,6.60
2022-10-25T05:32:22.893Z,3.63
2022-10-25T05:34:50.846Z,10.73
2022-10-25T05:37:18.810Z,4.70
2022-10-25T05:39:48.138Z,6.90
2022-10-25T05:42:16.160Z,5.07
2022-10-25T05:44:44.083Z,6.10
2022-10-25T05:47:13.187Z,5.10
2022-10-25T05:49:42.264Z,3.33
2022-10-25T05:52:11.189Z,8.53
2022-10-25T05:54:39.230Z,4.10
2022-10-25T05:57:08.785Z,6.80
2022-10-25T05:59:36.794Z,5.60
2022-10-25T06:02:04.954Z,6.77
2022-10-25T06:04:33.028Z,4.80
2022-10-25T06:07:01.393Z,5.77
2022-10-25T06:09:29.345Z,3.90
2022-10-25T06:11:57.372Z,6.90
2022-10-25T06:14:26.646Z,6.37
2022-10-25T06:16:54.754Z,8.20
2022-10-25T06:19:22.719Z,7.73
2022-10-25T06:21:50.732Z,3.27
2022-10-25T06:24:18.709Z,2.80
2022-10-25T06:26:46.745Z,9.17
2022-10-25T06:29:14.768Z,9.17
2022-10-25T06:31:44.597Z,4.43
2022-10-25T06:34:12.557Z,4.50
2022-10-25T06:36:40.484Z,5.47
2022-10-25T06:39:08.482Z,4.07
2022-10-25T06:41:37.845Z,12.90
2022-10-25T06:44:07.463Z,4.67
2022-10-25T06:46:57.830Z,9.80
2022-10-25T06:49:27.192Z,7.93
2022-10-25T06:51:55.541Z,6.87
2022-10-25T06:54:25.403Z,13.27
2022-10-25T06:56:53.537Z,11.03
2022-10-25T06:59:21.481Z,20.47
2022-10-25T07:01:50.078Z,13.40
2022-10-25T07:04:18.244Z,11.63
2022-10-25T07:06:50.042Z,7.77
2022-10-25T07:09:21.257Z,7.43
2022-10-25T07:11:49.280Z,6.70
2022-10-25T07:14:17.512Z,8.03
2022-10-25T07:16:45.408Z,6.33
2022-10-25T07:19:13.352Z,10.27
2022-10-25T07:21:41.393Z,11.70
2022-10-25T07:24:12.054Z,6.67
2022-10-25T07:26:40.714Z,7.80
2022-10-25T07:29:08.783Z,8.53
2022-10-25T07:31:39.368Z,6.83
2022-10-25T07:34:08.070Z,8.13
2022-10-25T07:36:36.045Z,4.83
2022-10-25T07:39:04.172Z,8.43
2022-10-25T07:41:33.436Z,12.47
2022-10-25T07:44:01.511Z,10.63
2022-10-25T07:46:29.437Z,7.03
2022-10-25T07:48:57.444Z,7.97
2022-10-25T07:51:25.429Z,9.53
2022-10-25T07:53:54.488Z,8.63
2022-10-25T07:56:23.890Z,8.80
2022-10-25T07:58:53.879Z,8.07
2022-10-25T08:01:23.829Z,5.77
2022-10-25T08:03:52.604Z,9.87
2022-10-25T08:06:21.981Z,5.33
2022-10-25T08:08:50.006Z,3.93
2022-10-25T08:11:18.096Z,5.17
2022-10-25T08:13:48.923Z,7.33
2022-10-25T08:16:18.538Z,4.73
2022-10-25T08:18:46.711Z,3.40
2022-10-25T08:21:15.618Z,4.60
2022-10-25T08:23:43.604Z,4.40
2022-10-25T08:26:11.849Z,6.70
2022-10-25T08:28:39.822Z,9.20
2022-10-25T08:31:08.369Z,8.23
2022-10-25T08:33:37.696Z,12.10
2022-10-25T08:36:06.281Z,12.70
2022-10-25T08:38:34.222Z,9.17
2022-10-25T08:41:10.201Z,8.30
2022-10-25T08:44:01.192Z,5.80
2022-10-25T08:46:33.071Z,8.53
2022-10-25T08:49:13.978Z,8.00
2022-10-25T08:51:44.735Z,8.30
2022-10-25T08:54:25.566Z,4.70
2022-10-25T08:57:17.595Z,10.13
2022-10-25T08:59:51.364Z,17.40
2022-10-25T09:02:27.800Z,8.13
2022-10-25T09:04:57.240Z,17.67
2022-10-25T09:08:01.667Z,9.13
2022-10-25T09:10:51.982Z,11.27
2022-10-25T09:16:17.233Z,6.30
2022-10-25T09:18:50.885Z,9.80
2022-10-25T09:21:24.078Z,9.17
2022-10-25T09:24:00.892Z,4.60
2022-10-25T09:26:44.375Z,11.97
2022-10-25T09:29:24.402Z,4.53
2022-10-25T09:31:57.356Z,4.80
2022-10-25T09:34:29.809Z,7.33
2022-10-25T09:37:07.891Z,5.13
2022-10-25T09:39:41.488Z,2.90
2022-10-25T09:42:19.663Z,5.90
2022-10-25T09:44:52.365Z,7.27
2022-10-25T09:47:31.796Z,5.20
2022-10-25T09:50:04.085Z,4.73
2022-10-25T09:52:44.979Z,4.90
2022-10-25T09:55:33.662Z,3.80
2022-10-25T09:58:02.571Z,12.33
2022-10-25T10:00:30.878Z,3.83
2022-10-25T10:02:58.928Z,5.23
2022-10-25T10:05:27.108Z,8.33
2022-10-25T10:07:56.479Z,4.00
2022-10-25T10:10:33.784Z,10.13
2022-10-25T10:13:07.663Z,5.00
2022-10-25T10:15:42.122Z,22.23
2022-10-25T10:18:26.549Z,7.97
2022-10-25T10:21:03.533Z,4.17
2022-10-25T10:23:37.730Z,3.33
2022-10-25T10:26:13.774Z,6.63
2022-10-25T10:28:46.690Z,6.63
2022-10-25T10:31:15.286Z,7.60
2022-10-25T10:33:49.809Z,4.77
2022-10-25T10:36:23.848Z,2.20
2022-10-25T10:38:53.397Z,2.50
2022-10-25T10:41:28.058Z,6.10
2022-10-25T10:44:13.607Z,5.13
2022-10-25T10:46:46.191Z,4.87
2022-10-25T10:49:15.391Z,3.87
2022-10-25T10:51:46.109Z,3.30
2022-10-25T10:54:28.107Z,4.33
2022-10-25T10:57:01.528Z,3.27
2022-10-25T10:59:41.177Z,5.37
2022-10-25T11:02:37.646Z,2.50
2022-10-25T11:05:21.333Z,1.93
2022-10-25T11:07:57.233Z,4.73
2022-10-25T11:10:32.781Z,3.87
2022-10-25T11:13:15.834Z,8.03
2022-10-25T11:16:41.345Z,5.67
2022-10-25T11:19:41.072Z,4.40
2022-10-25T11:25:34.974Z,7.87
2022-10-25T11:28:24.231Z,2.60
2022-10-25T11:31:02.622Z,4.17
2022-10-25T11:33:44.837Z,7.73
2022-10-25T11:36:44.351Z,4.00
2022-10-25T11:39:29.442Z,3.07
2022-10-25T11:42:08.389Z,5.13
2022-10-25T11:45:03.938Z,5.73
2022-10-25T11:47:43.417Z,2.73
2022-10-25T11:50:27.425Z,1.87
2022-10-25T11:53:32.561Z,4.53
2022-10-25T11:56:07.950Z,4.67
2022-10-25T11:58:46.760Z,2.73
2022-10-25T12:01:36.322Z,2.93
2022-10-25T12:04:29.819Z,3.43
2022-10-25T12:07:08.242Z,3.83
2022-10-25T12:09:46.082Z,4.10
2022-10-25T12:12:19.180Z,5.57
2022-10-25T12:14:53.789Z,5.67
2022-10-25T12:17:27.044Z,3.73
2022-10-25T12:20:00.851Z,4.23
2022-10-25T12:22:35.060Z,4.13
2022-10-25T12:25:08.138Z,3.07
2022-10-25T12:27:37.281Z,2.50
2022-10-25T12:30:15.736Z,4.93
2022-10-25T12:32:50.309Z,5.43
2022-10-25T12:35:23.523Z,2.50
2022-10-25T12:37:58.076Z,1.77
2022-10-25T12:40:29.541Z,5.33
2022-10-25T12:43:04.085Z,2.40
2022-10-25T12:46:18.031Z,2.40
2022-10-25T12:49:07.512Z,3.57
2022-10-25T12:51:53.736Z,2.00
2022-10-25T12:54:44.236Z,3.07
2022-10-25T12:57:21.681Z,2.23
2022-10-25T13:00:05.532Z,3.57
2022-10-25T13:03:18.471Z,5.30
2022-10-25T13:06:27.688Z,3.90
2022-10-25T13:09:02.912Z,2.13
2022-10-25T13:11:37.314Z,1.80
2022-10-25T13:14:15.589Z,2.10
2022-10-25T13:16:43.611Z,5.43
2022-10-25T13:19:53.464Z,2.67
2022-10-25T13:22:40.063Z,2.07
2022-10-25T13:25:19.057Z,2.20
2022-10-25T13:28:33.969Z,3.40
2022-10-25T13:31:50.446Z,3.43
2022-10-25T13:34:35.634Z,3.10
2022-10-25T13:37:06.925Z,5.70
2022-10-25T13:39:43.249Z,4.03
2022-10-25T13:42:32.324Z,4.33
2022-10-25T13:45:08.901Z,2.13
2022-10-25T13:47:40.551Z,8.00
2022-10-25T13:50:22.610Z,2.73
2022-10-25T13:53:02.630Z,5.40
2022-10-25T13:55:36.453Z,5.87
2022-10-25T13:58:47.495Z,4.23
2022-10-25T14:01:58.179Z,5.30
2022-10-25T14:04:38.912Z,5.77
2022-10-25T14:07:47.848Z,1.83
2022-10-25T14:10:36.100Z,3.77
2022-10-25T14:13:22.543Z,4.33
2022-10-25T14:15:57.580Z,4.57
2022-10-25T14:18:27.098Z,5.60
2022-10-25T14:20:58.687Z,18.67
2022-10-25T14:23:33.281Z,8.70
2022-10-25T14:26:03.171Z,5.43
2022-10-25T14:28:35.223Z,7.63
2022-10-25T14:31:05.596Z,5.13
2022-10-25T14:33:37.913Z,13.07
2022-10-25T14:36:11.544Z,5.40
2022-10-25T14:38:53.144Z,5.13
2022-10-25T14:41:24.555Z,7.30
2022-10-25T14:43:53.464Z,4.70
2022-10-25T14:46:23.863Z,3.30
2022-10-25T14:48:58.528Z,6.20
2022-10-25T14:51:29.827Z,3.53
2022-10-25T14:54:04.271Z,6.33
2022-10-25T14:56:37.051Z,6.30
2022-10-25T14:59:07.635Z,6.27
2022-10-25T15:01:36.349Z,7.93
2022-10-25T15:04:05.058Z,3.77
2022-10-25T15:06:33.608Z,6.67
2022-10-25T15:12:07.041Z,14.60
2022-10-25T15:14:35.728Z,5.87
2022-10-25T15:17:05.636Z,4.03
2022-10-25T15:19:33.693Z,4.40
2022-10-25T15:22:16.659Z,4.20
2022-10-25T15:24:48.920Z,11.03
2022-10-25T15:27:31.906Z,5.60
2022-10-25T15:30:00.050Z,5.43
2022-10-25T15:32:28.727Z,5.90
2022-10-25T15:34:59.197Z,3.47
2022-10-25T15:37:29.449Z,4.23
2022-10-25T15:39:58.917Z,6.90
2022-10-25T15:42:27.636Z,6.73
2022-10-25T15:44:55.616Z,4.77
2022-10-25T15:47:34.932Z,4.67
2022-10-25T15:50:07.501Z,9.17
2022-10-25T15:52:35.457Z,5.37
2022-10-25T15:55:18.534Z,9.30
2022-10-25T15:57:46.738Z,8.20
2022-10-25T16:00:16.305Z,5.93
2022-10-25T16:02:45.327Z,3.40
2022-10-25T16:05:22.286Z,9.50
2022-10-25T16:07:50.303Z,9.73
2022-10-25T16:10:22.080Z,10.10
2022-10-25T16:12:58.491Z,10.03
2022-10-25T16:15:28.529Z,11.77
2022-10-25T16:17:56.589Z,5.53
2022-10-25T16:20:27.777Z,4.10
2022-10-25T16:22:56.816Z,7.50
2022-10-25T16:25:30.597Z,8.73
2022-10-25T16:28:01.599Z,4.57
2022-10-25T16:30:34.613Z,4.23
2022-10-25T16:33:02.621Z,6.63
2022-10-25T16:35:30.548Z,5.43
2022-10-25T16:37:59.070Z,3.53
2022-10-25T16:40:29.352Z,6.00
2022-10-25T16:42:58.181Z,3.37
2022-10-25T16:45:29.524Z,4.20
2022-10-25T16:47:58.247Z,4.67
2022-10-25T16:50:28.256Z,2.60
2022-10-25T16:52:59.780Z,7.63
2022-10-25T16:55:30.683Z,11.50
2022-10-25T16:57:59.246Z,5.37
2022-10-25T17:00:28.507Z,6.33
2022-10-25T17:02:56.546Z,3.40
2022-10-25T17:05:29.478Z,4.77
2022-10-25T17:07:57.909Z,9.27
2022-10-25T17:10:26.691Z,7.93
2022-10-25T17:13:01.425Z,5.43
2022-10-25T17:15:30.164Z,7.30
2022-10-25T17:17:58.930Z,9.37
2022-10-25T17:20:26.948Z,5.60
2022-10-25T17:22:55.242Z,11.37
2022-10-25T17:25:23.901Z,6.90
2022-10-25T17:27:52.436Z,6.10
2022-10-25T17:30:22.077Z,10.40
2022-10-25T17:32:50.137Z,7.80
2022-10-25T17:35:19.584Z,6.70
2022-10-25T17:37:47.830Z,11.13
2022-10-25T17:40:16.135Z,6.37
2022-10-25T17:42:44.080Z,7.60
2022-10-25T17:45:12.658Z,6.37
2022-10-25T17:47:43.701Z,7.87
2022-10-25T17:50:12.761Z,5.20
2022-10-25T17:52:42.155Z,4.00
2022-10-25T17:55:11.621Z,5.43
2022-10-25T17:57:39.552Z,6.47
2022-10-25T18:00:09.501Z,4.20
2022-10-25T18:02:37.533Z,4.70
2022-10-25T18:05:22.841Z,7.47
2022-10-25T18:07:51.118Z,5.83
2022-10-25T18:10:19.892Z,9.23
2022-10-25T18:12:48.222Z,10.27
2022-10-25T18:15:16.683Z,9.70
2022-10-25T18:17:46.480Z,11.37
2022-10-25T18:20:17.058Z,9.17
2022-10-25T18:22:45.215Z,8.43
2022-10-25T18:25:13.345Z,10.30
2022-10-25T18:27:41.296Z,17.10
2022-10-25T18:30:11.716Z,8.43
2022-10-25T18:32:39.641Z,15.23
2022-10-25T18:35:08.871Z,6.70
2022-10-25T18:37:38.211Z,9.47
2022-10-25T18:40:08.570Z,10.70
2022-10-25T18:42:38.055Z,9.43
2022-10-25T18:45:07.545Z,9.43
2022-10-25T18:47:35.573Z,4.27
2022-10-25T18:50:03.570Z,12.27
2022-10-25T18:52:31.517Z,7.90
2022-10-25T18:55:00.815Z,9.60
2022-10-25T18:57:30.566Z,12.50
2022-10-25T18:59:58.501Z,11.00
2022-10-25T19:02:26.712Z,12.23
2022-10-25T19:04:54.831Z,12.63
2022-10-25T19:07:22.787Z,12.47
2022-10-25T19:09:51.002Z,9.80
2022-10-25T19:12:20.298Z,12.07
2022-10-25T19:17:21.091Z,15.67
2022-10-25T19:19:49.028Z,9.00
2022-10-25T19:22:17.004Z,8.30
2022-10-25T19:24:45.069Z,17.13
2022-10-25T19:27:13.140Z,18.43
2022-10-25T19:29:42.668Z,9.73
2022-10-25T19:32:10.628Z,8.70
2022-10-25T19:34:38.774Z,9.17
2022-10-25T19:37:08.756Z,11.60
2022-10-25T19:39:37.780Z,13.60
2022-10-25T19:42:06.162Z,9.07
2022-10-25T19:44:34.113Z,8.23
2022-10-25T19:47:03.829Z,16.30
2022-10-25T19:49:32.069Z,18.37
2022-10-25T19:52:00.011Z,8.40
2022-10-25T19:54:27.977Z,13.20
2022-10-25T19:56:56.201Z,10.43
2022-10-25T19:59:24.171Z,12.70
2022-10-25T20:01:52.306Z,7.10
2022-10-25T20:04:21.908Z,6.83
2022-10-25T20:06:50.001Z,8.13
2022-10-25T20:09:18.164Z,8.00
2022-10-25T20:11:46.196Z,6.90
2022-10-25T20:14:14.537Z,7.60
2022-10-25T20:16:42.470Z,9.27
2022-10-25T20:19:13.623Z,6.90
2022-10-25T20:21:43.128Z,7.60
2022-10-25T20:24:11.649Z,8.87
2022-10-25T20:26:42.032Z,9.73
2022-10-25T20:29:18.515Z,10.87
2022-10-25T20:31:49.937Z,10.17
2022-10-25T20:34:18.316Z,7.47
2022-10-25T20:36:48.024Z,6.23
2022-10-25T20:39:16.420Z,9.07
2022-10-25T20:41:44.565Z,8.77
2022-10-25T20:44:14.534Z,4.83
2022-10-25T20:46:42.525Z,6.10
2022-10-25T20:49:10.615Z,5.33
2022-10-25T20:51:38.568Z,6.80
2022-10-25T20:54:09.501Z,9.83
2022-10-25T20:56:39.175Z,8.33
2022-10-25T20:59:07.580Z,6.93
2022-10-25T21:01:35.772Z,9.37
2022-10-25T21:04:03.870Z,7.43
2022-10-25T21:06:31.808Z,7.67
2022-10-25T21:08:59.769Z,8.93
2022-10-25T21:11:29.644Z,6.17
2022-10-25T21:13:57.633Z,7.67
2022-10-25T21:16:25.601Z,5.67
2022-10-25T21:18:53.564Z,4.50
2022-10-25T21:21:21.614Z,4.57
2022-10-25T21:23:55.699Z,5.73
2022-10-25T21:26:24.106Z,5.50
2022-10-25T21:28:53.870Z,7.17
2022-10-25T21:31:21.913Z,8.17
2022-10-25T21:33:51.311Z,7.97
2022-10-25T21:36:21.492Z,5.23
2022-10-25T21:38:49.641Z,6.77
2022-10-25T21:41:20.813Z,7.47
2022-10-25T21:43:51.123Z,5.37
2022-10-25T21:46:22.486Z,8.50
2022-10-25T21:48:51.442Z,4.57
2022-10-25T21:51:19.885Z,5.50
2022-10-25T21:53:48.504Z,8.53
2022-10-25T21:56:19.051Z,22.10
2022-10-25T21:58:48.865Z,9.27
2022-10-25T22:01:20.823Z,14.70
2022-10-25T22:03:48.977Z,19.73
2022-10-25T22:06:19.340Z,37.67
2022-10-25T22:08:48.199Z,36.53
2022-10-25T22:11:19.485Z,28.03
2022-10-25T22:13:48.240Z,50.53
2022-10-25T22:16:18.585Z,30.50
2022-10-25T22:18:53.568Z,42.00
2022-10-25T22:21:22.670Z,31.47
2022-10-25T22:23:51.093Z,33.22
2022-10-25T22:26:21.612Z,32.10
2022-10-25T22:28:53.221Z,50.73
2022-10-25T22:31:21.964Z,30.50
2022-10-25T22:33:56.110Z,33.00
2022-10-25T22:36:27.455Z,39.77
2022-10-25T22:38:56.651Z,32.37
2022-10-25T22:41:26.795Z,32.10
2022-10-25T22:43:55.217Z,27.07
2022-10-25T22:46:25.778Z,23.90
2022-10-25T22:48:57.044Z,21.97
2022-10-25T22:51:28.036Z,26.50
2022-10-25T22:53:56.382Z,23.63
2022-10-25T22:56:26.012Z,21.90
2022-10-25T22:58:56.329Z,19.03
2022-10-25T23:01:27.229Z,20.40
2022-10-25T23:03:58.869Z,20.03
2022-10-25T23:06:29.078Z,22.03
2022-10-25T23:08:59.355Z,20.13
2022-10-25T23:11:29.581Z,16.37
2022-10-25T23:13:58.659Z,14.47
2022-10-25T23:16:27.658Z,12.00
2022-10-25T23:18:57.230Z,14.80
2022-10-25T23:21:27.529Z,12.30
2022-10-25T23:23:56.901Z,16.40
2022-10-25T23:26:27.309Z,15.37
2022-10-25T23:28:55.951Z,13.83
2022-10-25T23:31:24.927Z,15.70
2022-10-25T23:33:55.895Z,13.70
2022-10-25T23:36:25.705Z,10.20
2022-10-25T23:38:55.177Z,16.70
2022-10-25T23:41:24.006Z,15.40
2022-10-25T23:43:52.366Z,13.27
2022-10-25T23:46:20.392Z,10.97
2022-10-25T23:48:48.529Z,12.03
2022-10-25T23:51:20.352Z,11.80
2022-10-25T23:53:48.708Z,9.63
2022-10-25T23:56:16.955Z,14.53
2022-10-25T23:58:44.913Z,10.07
